createdAt,value
2017-08-17T00:00:39.533Z,15.80
2017-08-17T00:03:07.019Z,15.80
2017-08-17T00:05:34.483Z,15.80
2017-08-17T00:08:01.963Z,15.80
2017-08-17T00:10:29.418Z,15.80
2017-08-17T00:12:56.900Z,15.90
2017-08-17T00:15:24.359Z,15.80
2017-08-17T00:17:51.847Z,15.80
2017-08-17T00:20:19.307Z,15.80
2017-08-17T00:22:46.770Z,15.80
2017-08-17T00:25:14.256Z,15.70
2017-08-17T00:27:41.728Z,15.60
2017-08-17T00:30:09.188Z,15.60
2017-08-17T00:32:36.663Z,15.60
2017-08-17T00:35:04.123Z,15.50
2017-08-17T00:37:31.583Z,15.50
2017-08-17T00:39:59.060Z,15.50
2017-08-17T00:42:26.526Z,15.40
2017-08-17T00:44:54.759Z,15.40
2017-08-17T00:47:22.238Z,15.30
2017-08-17T00:49:49.710Z,15.50
2017-08-17T00:52:17.268Z,15.50
2017-08-17T00:54:44.746Z,15.60
2017-08-17T00:57:12.979Z,15.50
2017-08-17T00:59:40.455Z,15.50
2017-08-17T01:02:07.911Z,15.40
2017-08-17T01:04:35.390Z,15.40
2017-08-17T01:07:03.636Z,15.30
2017-08-17T01:09:31.123Z,15.30
2017-08-17T01:11:58.575Z,15.20
2017-08-17T01:14:26.821Z,15.20
2017-08-17T01:16:54.282Z,15.10
2017-08-17T01:19:21.752Z,15.10
2017-08-17T01:21:49.214Z,15.10
2017-08-17T01:24:17.438Z,15.10
2017-08-17T01:26:44.914Z,15.10
2017-08-17T01:29:12.386Z,15.10
2017-08-17T01:31:39.847Z,15.00
2017-08-17T01:34:07.318Z,15.00
2017-08-17T01:36:35.569Z,15.00
2017-08-17T01:39:03.036Z,14.90
2017-08-17T01:41:30.499Z,15.00
2017-08-17T01:43:57.980Z,15.00
2017-08-17T01:46:25.430Z,15.00
2017-08-17T01:48:52.910Z,15.00
2017-08-17T01:51:20.367Z,15.10
2017-08-17T01:53:47.846Z,15.10
2017-08-17T01:56:15.307Z,15.10
2017-08-17T01:58:42.791Z,15.10
2017-08-17T02:01:10.280Z,15.00
2017-08-17T02:03:37.731Z,15.10
2017-08-17T02:06:05.211Z,15.10
2017-08-17T02:08:32.671Z,15.20
2017-08-17T02:11:00.134Z,15.10
2017-08-17T02:13:27.614Z,15.10
2017-08-17T02:15:55.080Z,15.00
2017-08-17T02:18:22.555Z,15.00
2017-08-17T02:20:50.779Z,15.00
2017-08-17T02:23:18.255Z,15.00
2017-08-17T02:25:45.715Z,15.00
2017-08-17T02:28:13.195Z,15.00
2017-08-17T02:30:41.414Z,15.10
2017-08-17T02:33:08.898Z,15.10
2017-08-17T02:35:36.360Z,15.20
2017-08-17T02:38:03.818Z,15.20
2017-08-17T02:40:31.301Z,15.10
2017-08-17T02:42:58.789Z,15.00
2017-08-17T02:45:26.270Z,15.00
2017-08-17T02:47:53.733Z,15.10
2017-08-17T02:50:21.214Z,15.10
2017-08-17T02:52:48.682Z,15.10
2017-08-17T02:55:16.917Z,14.90
2017-08-17T02:57:44.379Z,14.90
2017-08-17T03:00:11.851Z,15.00
2017-08-17T03:02:39.326Z,15.00
2017-08-17T03:05:07.546Z,15.00
2017-08-17T03:07:35.011Z,15.00
2017-08-17T03:10:02.495Z,15.00
2017-08-17T03:12:29.963Z,15.00
2017-08-17T03:14:58.206Z,15.00
2017-08-17T03:17:25.664Z,15.10
2017-08-17T03:19:53.123Z,15.00
2017-08-17T03:22:20.599Z,15.00
2017-08-17T03:24:48.078Z,14.90
2017-08-17T03:27:16.315Z,14.90
2017-08-17T03:29:43.782Z,14.80
2017-08-17T03:32:11.240Z,14.90
2017-08-17T03:34:38.718Z,14.90
2017-08-17T03:37:06.963Z,14.80
2017-08-17T03:39:34.459Z,14.80
2017-08-17T03:42:01.921Z,14.80
2017-08-17T03:44:29.400Z,14.80
2017-08-17T03:46:56.874Z,14.70
2017-08-17T03:49:24.340Z,14.60
2017-08-17T03:51:51.811Z,14.60
2017-08-17T03:54:19.275Z,14.50
2017-08-17T03:56:46.763Z,14.50
2017-08-17T03:59:14.234Z,14.50
2017-08-17T04:01:41.698Z,14.50
2017-08-17T04:04:09.175Z,14.40
2017-08-17T04:06:36.635Z,14.40
2017-08-17T04:09:04.107Z,14.40
2017-08-17T04:11:31.567Z,14.50
2017-08-17T04:13:59.046Z,14.50
2017-08-17T04:16:27.271Z,14.60
2017-08-17T04:18:54.740Z,14.60
2017-08-17T04:21:22.219Z,14.60
2017-08-17T04:23:50.447Z,14.80
2017-08-17T04:26:17.919Z,14.80
2017-08-17T04:28:45.390Z,14.80
2017-08-17T04:31:12.847Z,14.80
2017-08-17T04:33:40.342Z,14.80
2017-08-17T04:36:08.558Z,14.80
2017-08-17T04:38:36.039Z,14.90
2017-08-17T04:41:03.494Z,14.90
2017-08-17T04:43:30.986Z,15.00
2017-08-17T04:45:58.468Z,15.00
2017-08-17T04:48:25.928Z,15.20
2017-08-17T04:50:53.403Z,15.20
2017-08-17T04:53:20.878Z,15.30
2017-08-17T04:55:48.346Z,15.40
2017-08-17T04:58:34.391Z,15.50
2017-08-17T05:01:01.867Z,15.50
2017-08-17T05:03:29.327Z,15.60
2017-08-17T05:05:56.799Z,15.70
2017-08-17T05:08:24.291Z,15.70
2017-08-17T05:10:51.765Z,15.70
2017-08-17T05:13:19.226Z,15.70
2017-08-17T05:15:46.702Z,15.80
2017-08-17T05:18:14.162Z,15.90
2017-08-17T05:20:41.623Z,16.00
2017-08-17T05:23:09.097Z,16.20
2017-08-17T05:25:36.555Z,16.20
2017-08-17T05:28:04.032Z,16.30
2017-08-17T05:30:32.267Z,16.30
2017-08-17T05:32:59.723Z,16.30
2017-08-17T05:35:27.215Z,16.30
2017-08-17T05:37:55.460Z,16.20
2017-08-17T05:40:22.918Z,16.20
2017-08-17T05:42:50.395Z,16.20
2017-08-17T05:45:18.642Z,16.20
2017-08-17T05:47:46.122Z,16.20
2017-08-17T05:50:13.590Z,16.20
2017-08-17T05:52:41.828Z,16.20
2017-08-17T05:55:09.286Z,16.20
2017-08-17T05:57:36.775Z,16.20
2017-08-17T06:00:04.997Z,16.30
2017-08-17T06:02:32.470Z,16.20
2017-08-17T06:04:59.931Z,16.30
2017-08-17T06:07:27.403Z,16.20
2017-08-17T06:09:54.875Z,16.30
2017-08-17T06:12:23.103Z,16.40
2017-08-17T06:14:50.579Z,16.40
2017-08-17T06:17:18.039Z,16.50
2017-08-17T06:19:45.518Z,16.50
2017-08-17T06:22:13.762Z,16.50
2017-08-17T06:24:41.227Z,16.50
2017-08-17T06:27:08.690Z,16.50
2017-08-17T06:29:36.183Z,16.50
2017-08-17T06:32:03.656Z,16.50
2017-08-17T06:34:31.118Z,16.50
2017-08-17T06:36:58.583Z,16.60
2017-08-17T06:39:26.070Z,16.70
2017-08-17T06:41:53.518Z,16.70
2017-08-17T06:44:20.991Z,16.80
2017-08-17T06:46:48.466Z,16.90
2017-08-17T06:49:15.944Z,17.00
2017-08-17T06:51:43.423Z,17.00
2017-08-17T06:54:10.882Z,16.90
2017-08-17T06:56:38.362Z,17.00
2017-08-17T06:59:05.830Z,17.00
2017-08-17T07:01:33.287Z,17.00
2017-08-17T07:04:01.541Z,17.10
2017-08-17T07:06:28.991Z,17.10
2017-08-17T07:08:56.456Z,17.20
2017-08-17T07:11:23.927Z,17.30
2017-08-17T07:13:51.408Z,17.40
2017-08-17T07:16:19.635Z,17.60
2017-08-17T07:18:47.115Z,17.50
2017-08-17T07:21:14.582Z,17.70
2017-08-17T07:23:42.820Z,17.80
2017-08-17T07:26:10.280Z,17.80
2017-08-17T07:28:37.760Z,17.90
2017-08-17T07:31:05.247Z,18.10
2017-08-17T07:33:32.735Z,18.10
2017-08-17T07:36:00.207Z,18.30
2017-08-17T07:38:27.679Z,18.40
2017-08-17T07:40:55.152Z,18.40
2017-08-17T07:43:23.386Z,18.60
2017-08-17T07:45:50.851Z,18.50
2017-08-17T07:48:18.327Z,18.60
2017-08-17T07:50:45.941Z,18.60
2017-08-17T07:53:13.403Z,18.60
2017-08-17T07:55:40.895Z,18.60
2017-08-17T07:58:08.360Z,18.70
2017-08-17T08:00:35.838Z,18.80
2017-08-17T08:03:04.066Z,18.90
2017-08-17T08:05:31.550Z,18.90
2017-08-17T08:07:59.015Z,19.00
2017-08-17T08:10:27.260Z,19.10
2017-08-17T08:12:54.727Z,19.10
2017-08-17T08:15:22.203Z,19.10
2017-08-17T08:17:50.441Z,19.20
2017-08-17T08:20:17.900Z,19.20
2017-08-17T08:22:45.372Z,19.30
2017-08-17T08:25:12.839Z,19.40
2017-08-17T08:27:40.322Z,19.50
2017-08-17T08:30:07.778Z,19.60
2017-08-17T08:32:35.259Z,19.70
2017-08-17T08:35:02.742Z,19.80
2017-08-17T08:37:31.439Z,19.90
2017-08-17T08:39:58.898Z,19.90
2017-08-17T08:42:26.370Z,20.00
2017-08-17T08:44:54.611Z,20.10
2017-08-17T08:47:22.103Z,20.10
2017-08-17T08:49:50.358Z,20.30
2017-08-17T08:52:17.831Z,20.30
2017-08-17T08:54:46.069Z,20.50
2017-08-17T08:57:13.524Z,20.40
2017-08-17T08:59:40.999Z,20.60
2017-08-17T09:02:08.459Z,20.70
2017-08-17T09:04:35.930Z,20.60
2017-08-17T09:07:04.163Z,20.80
2017-08-17T09:09:31.630Z,20.70
2017-08-17T09:11:59.091Z,20.70
2017-08-17T09:14:26.563Z,20.70
2017-08-17T09:16:54.035Z,20.70
2017-08-17T09:19:22.249Z,20.80
2017-08-17T09:21:49.725Z,20.80
2017-08-17T09:24:17.178Z,20.90
2017-08-17T09:26:44.643Z,21.00
2017-08-17T09:29:12.115Z,21.20
2017-08-17T09:31:39.575Z,21.40
2017-08-17T09:34:07.038Z,21.70
2017-08-17T09:36:34.510Z,21.90
2017-08-17T09:39:02.762Z,21.60
2017-08-17T09:41:30.235Z,21.60
2017-08-17T09:43:58.452Z,21.50
2017-08-17T09:46:25.939Z,21.50
2017-08-17T09:48:53.384Z,21.60
2017-08-17T09:51:20.834Z,21.70
2017-08-17T09:53:48.323Z,21.80
2017-08-17T09:56:15.770Z,21.90
2017-08-17T09:58:43.234Z,21.90
2017-08-17T10:01:10.710Z,21.90
2017-08-17T10:03:38.939Z,22.00
2017-08-17T10:06:06.415Z,22.00
2017-08-17T10:08:33.870Z,22.10
2017-08-17T10:11:01.343Z,22.20
2017-08-17T10:13:29.559Z,22.50
2017-08-17T10:15:57.023Z,22.50
2017-08-17T10:18:24.507Z,22.80
2017-08-17T10:20:51.976Z,22.90
2017-08-17T10:23:19.447Z,23.20
2017-08-17T10:25:47.667Z,23.40
2017-08-17T10:28:15.219Z,23.30
2017-08-17T10:30:42.665Z,23.50
2017-08-17T10:33:10.143Z,23.70
2017-08-17T10:35:37.598Z,23.50
2017-08-17T10:38:05.067Z,23.50
2017-08-17T10:40:32.535Z,23.40
2017-08-17T10:43:00.003Z,23.40
2017-08-17T10:45:27.459Z,23.60
2017-08-17T10:47:54.912Z,23.70
2017-08-17T10:50:22.383Z,23.70
2017-08-17T10:52:50.607Z,23.60
2017-08-17T10:55:19.886Z,23.60
2017-08-17T10:57:47.346Z,23.90
2017-08-17T11:00:14.816Z,24.10
2017-08-17T11:02:42.285Z,24.10
2017-08-17T11:05:09.750Z,24.10
2017-08-17T11:07:37.218Z,24.10
2017-08-17T11:10:04.679Z,24.10
2017-08-17T11:12:32.147Z,23.90
2017-08-17T11:15:00.383Z,24.00
2017-08-17T11:17:27.863Z,24.00
2017-08-17T11:19:55.323Z,24.00
2017-08-17T11:22:22.775Z,24.00
2017-08-17T11:24:50.275Z,24.00
2017-08-17T11:27:17.724Z,24.00
2017-08-17T11:29:45.951Z,24.00
2017-08-17T11:32:13.427Z,24.00
2017-08-17T11:34:40.900Z,24.00
2017-08-17T11:37:09.122Z,24.00
2017-08-17T11:39:36.607Z,24.00
2017-08-17T11:42:31.910Z,24.00
2017-08-17T11:44:59.383Z,24.00
2017-08-17T11:47:26.834Z,24.20
2017-08-17T11:49:54.308Z,24.00
2017-08-17T11:52:21.786Z,23.70
2017-08-17T11:54:49.258Z,23.40
2017-08-17T11:57:16.719Z,23.20
2017-08-17T11:59:44.197Z,23.00
2017-08-17T12:02:11.643Z,22.60
2017-08-17T12:04:39.111Z,22.40
2017-08-17T12:07:06.582Z,22.20
2017-08-17T12:09:34.039Z,22.10
2017-08-17T12:12:01.520Z,22.10
2017-08-17T12:14:29.740Z,22.40
2017-08-17T12:16:57.219Z,22.30
2017-08-17T12:19:24.683Z,22.50
2017-08-17T12:21:52.162Z,22.60
2017-08-17T12:24:20.384Z,22.60
2017-08-17T12:26:47.871Z,22.60
2017-08-17T12:29:15.323Z,22.50
2017-08-17T12:31:42.796Z,22.50
2017-08-17T12:34:10.251Z,22.60
2017-08-17T12:36:37.710Z,22.50
2017-08-17T12:39:05.191Z,22.50
2017-08-17T12:41:32.656Z,22.40
2017-08-17T12:44:00.120Z,22.00
2017-08-17T12:46:27.574Z,21.90
2017-08-17T12:48:55.052Z,21.70
2017-08-17T12:51:22.519Z,21.50
2017-08-17T12:53:50.003Z,21.50
2017-08-17T12:56:17.470Z,21.50
2017-08-17T12:58:44.941Z,21.60
2017-08-17T13:01:12.418Z,21.80
2017-08-17T13:03:39.875Z,21.80
2017-08-17T13:06:07.355Z,21.90
2017-08-17T13:08:34.823Z,21.80
2017-08-17T13:11:02.278Z,21.70
2017-08-17T13:13:29.750Z,21.70
2017-08-17T13:15:57.216Z,21.70
2017-08-17T13:18:25.462Z,21.70
2017-08-17T13:20:52.926Z,21.70
2017-08-17T13:23:20.390Z,21.50
2017-08-17T13:25:47.866Z,21.40
2017-08-17T13:28:16.089Z,21.40
2017-08-17T13:30:43.558Z,21.30
2017-08-17T13:33:11.015Z,21.30
2017-08-17T13:35:38.548Z,21.30
2017-08-17T13:38:05.991Z,21.30
2017-08-17T13:40:33.463Z,21.30
2017-08-17T13:43:01.018Z,21.30
2017-08-17T13:45:28.463Z,21.30
2017-08-17T13:47:55.943Z,21.30
2017-08-17T13:50:23.410Z,21.30
2017-08-17T13:52:50.886Z,21.40
2017-08-17T13:55:18.354Z,21.30
2017-08-17T13:57:45.830Z,21.50
2017-08-17T14:00:14.068Z,21.90
2017-08-17T14:02:41.519Z,21.90
2017-08-17T14:05:08.991Z,22.00
2017-08-17T14:07:36.459Z,22.10
2017-08-17T14:10:04.715Z,21.80
2017-08-17T14:12:32.166Z,21.70
2017-08-17T14:14:59.640Z,21.70
2017-08-17T14:17:27.099Z,21.80
2017-08-17T14:19:54.609Z,21.90
2017-08-17T14:22:22.063Z,22.00
2017-08-17T14:24:49.617Z,21.90
2017-08-17T14:27:17.076Z,22.10
2017-08-17T14:29:44.534Z,22.10
2017-08-17T14:32:12.016Z,22.10
2017-08-17T14:34:39.504Z,22.20
2017-08-17T14:37:07.738Z,22.30
2017-08-17T14:39:35.206Z,22.30
2017-08-17T14:42:02.671Z,22.40
2017-08-17T14:44:30.138Z,22.40
2017-08-17T14:46:57.607Z,22.40
2017-08-17T14:49:25.827Z,22.20
2017-08-17T14:51:53.294Z,22.10
2017-08-17T14:54:20.749Z,22.00
2017-08-17T14:56:48.223Z,22.00
2017-08-17T14:59:15.671Z,21.80
2017-08-17T15:01:43.146Z,21.90
2017-08-17T15:04:10.606Z,21.90
2017-08-17T15:06:38.071Z,21.70
2017-08-17T15:09:06.327Z,21.60
2017-08-17T15:11:33.771Z,21.50
2017-08-17T15:14:01.248Z,21.50
2017-08-17T15:16:28.724Z,21.50
2017-08-17T15:18:56.202Z,21.40
2017-08-17T15:21:23.672Z,21.40
2017-08-17T15:23:51.174Z,21.40
2017-08-17T15:26:18.642Z,21.40
2017-08-17T15:28:46.871Z,21.30
2017-08-17T15:31:14.347Z,21.30
2017-08-17T15:33:41.803Z,21.20
2017-08-17T15:36:09.267Z,21.00
2017-08-17T15:38:36.722Z,21.00
2017-08-17T15:41:04.186Z,20.80
2017-08-17T15:43:31.654Z,20.80
2017-08-17T15:45:59.879Z,20.70
2017-08-17T15:48:27.351Z,20.70
2017-08-17T15:50:54.823Z,20.70
2017-08-17T15:53:22.275Z,20.70
2017-08-17T15:55:49.750Z,20.70
2017-08-17T15:58:17.970Z,20.80
2017-08-17T16:00:45.458Z,20.80
2017-08-17T16:03:12.931Z,20.80
2017-08-17T16:05:41.179Z,20.80
2017-08-17T16:08:08.652Z,20.80
2017-08-17T16:10:36.123Z,20.80
2017-08-17T16:13:03.586Z,20.80
2017-08-17T16:15:31.819Z,20.90
2017-08-17T16:17:59.272Z,20.80
2017-08-17T16:20:26.734Z,20.80
2017-08-17T16:22:54.202Z,20.90
2017-08-17T16:27:46.617Z,20.90
2017-08-17T16:30:14.066Z,20.90
2017-08-17T16:32:41.559Z,20.90
2017-08-17T16:35:09.024Z,21.00
2017-08-17T16:37:36.495Z,21.00
2017-08-17T16:40:03.958Z,20.90
2017-08-17T16:42:31.407Z,20.90
2017-08-17T16:44:58.890Z,20.90
2017-08-17T16:47:27.110Z,20.80
2017-08-17T16:49:54.579Z,20.80
2017-08-17T16:52:22.047Z,20.80
2017-08-17T16:54:49.508Z,20.70
2017-08-17T16:57:16.974Z,20.80
2017-08-17T16:59:45.214Z,20.90
2017-08-17T17:02:12.701Z,20.80
2017-08-17T17:04:40.150Z,20.80
2017-08-17T17:07:07.610Z,20.80
2017-08-17T17:09:35.083Z,20.80
2017-08-17T17:12:03.320Z,20.70
2017-08-17T17:14:30.779Z,20.70
2017-08-17T17:16:58.273Z,20.80
2017-08-17T17:19:26.507Z,20.80
2017-08-17T17:21:53.971Z,20.80
2017-08-17T17:24:21.450Z,20.80
2017-08-17T17:26:49.670Z,20.80
2017-08-17T17:29:17.134Z,20.80
2017-08-17T17:31:44.613Z,20.80
2017-08-17T17:34:12.083Z,20.80
2017-08-17T17:36:39.575Z,20.80
2017-08-17T17:39:07.026Z,20.80
2017-08-17T17:41:34.499Z,20.70
2017-08-17T17:44:01.964Z,20.70
2017-08-17T17:46:29.430Z,20.70
2017-08-17T17:48:56.904Z,20.80
2017-08-17T17:51:24.361Z,20.70
2017-08-17T17:53:51.835Z,20.70
2017-08-17T17:56:19.298Z,20.80
2017-08-17T17:58:46.797Z,20.80
2017-08-17T18:01:14.271Z,20.70
2017-08-17T18:03:41.743Z,20.70
2017-08-17T18:06:09.222Z,20.70
2017-08-17T18:08:36.671Z,20.70
2017-08-17T18:11:04.157Z,20.70
2017-08-17T18:13:32.637Z,20.70
2017-08-17T18:16:00.961Z,20.70
2017-08-17T18:18:28.423Z,20.60
2017-08-17T18:20:55.902Z,20.70
2017-08-17T18:23:23.363Z,20.60
2017-08-17T18:25:50.839Z,20.60
2017-08-17T18:28:19.077Z,20.50
2017-08-17T18:30:46.540Z,20.40
2017-08-17T18:33:14.061Z,20.40
2017-08-17T18:35:41.541Z,20.30
2017-08-17T18:38:09.000Z,20.30
2017-08-17T18:40:36.470Z,20.20
2017-08-17T18:43:03.941Z,20.20
2017-08-17T18:45:31.415Z,20.20
2017-08-17T18:47:59.639Z,20.00
2017-08-17T18:50:27.106Z,20.00
2017-08-17T18:52:54.572Z,20.00
2017-08-17T18:55:22.040Z,20.00
2017-08-17T18:57:50.276Z,19.90
2017-08-17T19:00:17.739Z,19.90
2017-08-17T19:02:45.208Z,19.90
2017-08-17T19:05:12.676Z,19.90
2017-08-17T19:07:40.154Z,19.90
2017-08-17T19:10:08.403Z,19.90
2017-08-17T19:12:35.880Z,19.90
2017-08-17T19:15:04.127Z,19.80
2017-08-17T19:17:31.580Z,19.80
2017-08-17T19:19:59.052Z,19.80
2017-08-17T19:22:26.509Z,19.70
2017-08-17T19:24:53.987Z,19.70
2017-08-17T19:27:22.210Z,19.70
2017-08-17T19:29:49.676Z,19.70
2017-08-17T19:32:17.149Z,19.60
2017-08-17T19:34:44.612Z,19.70
2017-08-17T19:37:12.088Z,19.60
2017-08-17T19:39:40.307Z,19.60
2017-08-17T19:42:07.764Z,19.60
2017-08-17T19:44:35.231Z,19.60
2017-08-17T19:47:02.687Z,19.60
2017-08-17T19:49:30.175Z,19.50
2017-08-17T19:51:58.439Z,19.50
2017-08-17T19:54:25.931Z,19.50
2017-08-17T19:56:54.150Z,19.60
2017-08-17T19:59:21.635Z,19.60
2017-08-17T20:01:49.083Z,19.60
2017-08-17T20:04:16.550Z,19.60
2017-08-17T20:06:44.779Z,19.60
2017-08-17T20:09:12.231Z,19.60
2017-08-17T20:11:39.698Z,19.60
2017-08-17T20:14:07.175Z,19.60
2017-08-17T20:16:34.659Z,19.60
2017-08-17T20:19:02.118Z,19.50
2017-08-17T20:21:30.339Z,19.50
2017-08-17T20:23:57.802Z,19.50
2017-08-17T20:26:25.251Z,19.50
2017-08-17T20:28:52.720Z,19.50
2017-08-17T20:31:20.195Z,19.50
2017-08-17T20:33:47.670Z,19.50
2017-08-17T20:36:15.895Z,19.50
2017-08-17T20:38:43.351Z,19.50
2017-08-17T20:41:10.818Z,19.50
2017-08-17T20:43:38.287Z,19.50
2017-08-17T20:46:05.766Z,19.50
2017-08-17T20:48:33.995Z,19.50
2017-08-17T20:51:01.452Z,19.50
2017-08-17T20:53:28.947Z,19.40
2017-08-17T20:55:56.399Z,19.40
2017-08-17T20:58:23.851Z,19.30
2017-08-17T21:00:51.323Z,19.30
2017-08-17T21:03:19.556Z,19.10
2017-08-17T21:05:47.036Z,19.10
2017-08-17T21:08:14.503Z,19.00
2017-08-17T21:10:41.975Z,19.00
2017-08-17T21:13:10.196Z,18.80
2017-08-17T21:15:37.675Z,18.80
2017-08-17T21:18:05.133Z,18.80
2017-08-17T21:20:32.621Z,18.70
2017-08-17T21:23:00.855Z,18.70
2017-08-17T21:25:28.310Z,18.60
2017-08-17T21:27:55.788Z,18.70
2017-08-17T21:30:23.257Z,18.70
2017-08-17T21:32:51.504Z,18.60
2017-08-17T21:35:18.989Z,18.60
2017-08-17T21:37:47.219Z,18.60
2017-08-17T21:40:14.683Z,18.60
2017-08-17T21:42:42.143Z,18.50
2017-08-17T21:45:09.618Z,18.50
2017-08-17T21:47:37.126Z,18.60
2017-08-17T21:50:04.581Z,18.60
2017-08-17T21:52:32.059Z,18.60
2017-08-17T21:54:59.526Z,18.60
2017-08-17T21:57:26.984Z,18.60
2017-08-17T21:59:54.459Z,18.60
2017-08-17T22:02:21.923Z,18.60
2017-08-17T22:04:50.162Z,18.50
2017-08-17T22:07:17.639Z,18.50
2017-08-17T22:09:45.102Z,18.50
2017-08-17T22:12:12.578Z,18.40
2017-08-17T22:14:40.816Z,18.30
2017-08-17T22:17:08.283Z,18.30
2017-08-17T22:19:35.771Z,18.30
2017-08-17T22:22:04.013Z,18.30
2017-08-17T22:24:31.484Z,18.20
2017-08-17T22:26:59.715Z,18.30
2017-08-17T22:29:27.174Z,18.30
2017-08-17T22:31:54.625Z,18.30
2017-08-17T22:34:22.103Z,18.30
2017-08-17T22:36:49.567Z,18.20
2017-08-17T22:39:17.032Z,18.20
2017-08-17T22:41:44.515Z,18.30
2017-08-17T22:44:12.735Z,18.30
2017-08-17T22:46:40.198Z,18.30
2017-08-17T22:49:07.667Z,18.30
2017-08-17T22:51:35.135Z,18.20
2017-08-17T22:54:02.606Z,18.20
2017-08-17T22:56:30.853Z,18.10
2017-08-17T22:58:58.310Z,18.10
2017-08-17T23:01:25.783Z,18.10
2017-08-17T23:03:53.251Z,18.10
2017-08-17T23:06:21.504Z,18.10
2017-08-17T23:08:48.970Z,18.10
2017-08-17T23:11:17.194Z,18.10
2017-08-17T23:13:45.388Z,18.00
2017-08-17T23:16:12.838Z,18.10
2017-08-17T23:18:40.320Z,18.00
2017-08-17T23:21:07.799Z,18.00
2017-08-17T23:23:36.031Z,17.90
2017-08-17T23:26:03.499Z,17.90
2017-08-17T23:28:30.981Z,17.90
2017-08-17T23:30:59.208Z,17.80
2017-08-17T23:33:26.691Z,17.80
2017-08-17T23:35:54.161Z,17.80
2017-08-17T23:38:21.622Z,17.70
2017-08-17T23:40:49.099Z,17.70
2017-08-17T23:43:16.550Z,17.70
2017-08-17T23:45:44.774Z,17.70
2017-08-17T23:48:12.258Z,17.70
2017-08-17T23:50:39.722Z,17.80
2017-08-17T23:53:07.962Z,17.80
2017-08-17T23:55:35.419Z,17.80
2017-08-17T23:58:02.895Z,17.90
